sensor_id;sensor_type;location;lat;lon;timestamp;P1;durP1;ratioP1;P2;durP2;ratioP2
20705;SDS011;10514;49.468;11.044;2023-05-10T00:02:09;5.97;;;4.38;;
20705;SDS011;10514;49.468;11.044;2023-05-10T00:04:35;5.65;;;4.50;;
20705;SDS011;10514;49.468;11.044;2023-05-10T00:07:01;8.75;;;5.47;;
20705;SDS011;10514;49.468;11.044;2023-05-10T00:09:27;6.20;;;4.80;;
20705;SDS011;10514;49.468;11.044;2023-05-10T00:11:53;7.07;;;4.90;;
20705;SDS011;10514;49.468;11.044;2023-05-10T00:14:18;5.75;;;3.92;;
20705;SDS011;10514;49.468;11.044;2023-05-10T00:16:44;9.70;;;4.80;;
20705;SDS011;10514;49.468;11.044;2023-05-10T00:19:10;7.50;;;5.20;;
20705;SDS011;10514;49.468;11.044;2023-05-10T00:21:36;7.32;;;5.63;;
20705;SDS011;10514;49.468;11.044;2023-05-10T00:24:02;5.97;;;4.82;;
20705;SDS011;10514;49.468;11.044;2023-05-10T00:26:28;6.35;;;5.30;;
20705;SDS011;10514;49.468;11.044;2023-05-10T00:28:54;6.40;;;5.38;;
20705;SDS011;10514;49.468;11.044;2023-05-10T00:31:21;5.90;;;5.25;;
20705;SDS011;10514;49.468;11.044;2023-05-10T00:33:47;7.75;;;5.97;;
20705;SDS011;10514;49.468;11.044;2023-05-10T00:36:13;6.72;;;5.53;;
20705;SDS011;10514;49.468;11.044;2023-05-10T00:38:39;8.07;;;5.97;;
20705;SDS011;10514;49.468;11.044;2023-05-10T00:41:05;6.85;;;5.60;;
20705;SDS011;10514;49.468;11.044;2023-05-10T00:43:31;6.13;;;5.30;;
20705;SDS011;10514;49.468;11.044;2023-05-10T00:45:57;7.05;;;5.93;;
20705;SDS011;10514;49.468;11.044;2023-05-10T00:48:23;6.05;;;5.03;;
20705;SDS011;10514;49.468;11.044;2023-05-10T00:50:49;7.72;;;5.25;;
20705;SDS011;10514;49.468;11.044;2023-05-10T00:53:15;6.28;;;5.13;;
20705;SDS011;10514;49.468;11.044;2023-05-10T00:55:40;6.38;;;5.18;;
20705;SDS011;10514;49.468;11.044;2023-05-10T00:58:07;7.78;;;5.65;;
20705;SDS011;10514;49.468;11.044;2023-05-10T01:00:33;7.18;;;5.50;;
20705;SDS011;10514;49.468;11.044;2023-05-10T01:02:59;7.00;;;5.93;;
20705;SDS011;10514;49.468;11.044;2023-05-10T01:05:24;7.03;;;5.90;;
20705;SDS011;10514;49.468;11.044;2023-05-10T01:07:52;7.38;;;5.72;;
20705;SDS011;10514;49.468;11.044;2023-05-10T01:10:17;7.82;;;6.22;;
20705;SDS011;10514;49.468;11.044;2023-05-10T01:12:44;7.68;;;5.63;;
20705;SDS011;10514;49.468;11.044;2023-05-10T01:15:11;7.47;;;5.47;;
20705;SDS011;10514;49.468;11.044;2023-05-10T01:17:39;6.82;;;5.13;;
20705;SDS011;10514;49.468;11.044;2023-05-10T01:20:06;6.97;;;5.60;;
20705;SDS011;10514;49.468;11.044;2023-05-10T01:27:37;8.32;;;6.95;;
20705;SDS011;10514;49.468;11.044;2023-05-10T01:32:50;6.40;;;5.30;;
20705;SDS011;10514;49.468;11.044;2023-05-10T01:35:23;6.25;;;5.55;;
20705;SDS011;10514;49.468;11.044;2023-05-10T01:38:04;6.82;;;5.30;;
20705;SDS011;10514;49.468;11.044;2023-05-10T01:43:19;5.05;;;4.22;;
20705;SDS011;10514;49.468;11.044;2023-05-10T01:45:48;4.82;;;4.15;;
20705;SDS011;10514;49.468;11.044;2023-05-10T01:48:21;6.05;;;4.50;;
20705;SDS011;10514;49.468;11.044;2023-05-10T01:50:48;6.15;;;4.93;;
20705;SDS011;10514;49.468;11.044;2023-05-10T01:53:17;8.35;;;4.38;;
20705;SDS011;10514;49.468;11.044;2023-05-10T01:55:46;6.15;;;4.75;;
20705;SDS011;10514;49.468;11.044;2023-05-10T01:58:13;5.53;;;4.25;;
20705;SDS011;10514;49.468;11.044;2023-05-10T02:00:42;6.10;;;4.93;;
20705;SDS011;10514;49.468;11.044;2023-05-10T02:03:09;6.82;;;4.70;;
20705;SDS011;10514;49.468;11.044;2023-05-10T02:05:36;5.97;;;4.80;;
20705;SDS011;10514;49.468;11.044;2023-05-10T02:08:03;6.90;;;5.22;;
20705;SDS011;10514;49.468;11.044;2023-05-10T02:10:31;6.72;;;5.32;;
20705;SDS011;10514;49.468;11.044;2023-05-10T02:12:58;6.85;;;4.80;;
20705;SDS011;10514;49.468;11.044;2023-05-10T02:15:25;7.63;;;5.32;;
20705;SDS011;10514;49.468;11.044;2023-05-10T02:17:52;7.32;;;4.97;;
20705;SDS011;10514;49.468;11.044;2023-05-10T02:20:20;6.30;;;5.25;;
20705;SDS011;10514;49.468;11.044;2023-05-10T02:22:48;6.40;;;4.50;;
20705;SDS011;10514;49.468;11.044;2023-05-10T02:25:14;5.65;;;3.85;;
20705;SDS011;10514;49.468;11.044;2023-05-10T02:27:41;6.05;;;5.05;;
20705;SDS011;10514;49.468;11.044;2023-05-10T02:30:08;5.15;;;3.65;;
20705;SDS011;10514;49.468;11.044;2023-05-10T02:32:35;6.60;;;4.05;;
20705;SDS011;10514;49.468;11.044;2023-05-10T02:35:02;5.65;;;4.28;;
20705;SDS011;10514;49.468;11.044;2023-05-10T02:37:29;10.25;;;4.50;;
20705;SDS011;10514;49.468;11.044;2023-05-10T02:39:55;6.72;;;3.92;;
20705;SDS011;10514;49.468;11.044;2023-05-10T02:42:23;5.20;;;4.10;;
20705;SDS011;10514;49.468;11.044;2023-05-10T02:44:50;5.10;;;4.03;;
20705;SDS011;10514;49.468;11.044;2023-05-10T02:47:19;9.50;;;3.40;;
20705;SDS011;10514;49.468;11.044;2023-05-10T02:49:46;4.60;;;3.28;;
20705;SDS011;10514;49.468;11.044;2023-05-10T02:52:11;4.63;;;3.35;;
20705;SDS011;10514;49.468;11.044;2023-05-10T02:54:45;4.22;;;3.17;;
20705;SDS011;10514;49.468;11.044;2023-05-10T02:57:17;4.90;;;3.10;;
20705;SDS011;10514;49.468;11.044;2023-05-10T02:59:48;4.10;;;3.38;;
20705;SDS011;10514;49.468;11.044;2023-05-10T03:02:14;3.85;;;2.97;;
20705;SDS011;10514;49.468;11.044;2023-05-10T03:04:40;3.97;;;2.30;;
20705;SDS011;10514;49.468;11.044;2023-05-10T03:07:06;3.30;;;2.55;;
20705;SDS011;10514;49.468;11.044;2023-05-10T03:09:32;3.42;;;2.38;;
20705;SDS011;10514;49.468;11.044;2023-05-10T03:12:07;3.97;;;2.22;;
20705;SDS011;10514;49.468;11.044;2023-05-10T03:17:06;2.67;;;1.80;;
20705;SDS011;10514;49.468;11.044;2023-05-10T03:19:48;2.42;;;2.08;;
20705;SDS011;10514;49.468;11.044;2023-05-10T03:22:26;2.47;;;1.73;;
20705;SDS011;10514;49.468;11.044;2023-05-10T03:24:57;5.38;;;2.30;;
20705;SDS011;10514;49.468;11.044;2023-05-10T03:27:26;3.80;;;1.80;;
20705;SDS011;10514;49.468;11.044;2023-05-10T03:29:52;2.33;;;1.38;;
20705;SDS011;10514;49.468;11.044;2023-05-10T03:32:19;2.67;;;1.52;;
20705;SDS011;10514;49.468;11.044;2023-05-10T03:34:45;2.10;;;1.30;;
20705;SDS011;10514;49.468;11.044;2023-05-10T03:37:11;2.00;;;1.45;;
20705;SDS011;10514;49.468;11.044;2023-05-10T03:39:37;1.33;;;1.17;;
20705;SDS011;10514;49.468;11.044;2023-05-10T03:42:03;1.77;;;1.15;;
20705;SDS011;10514;49.468;11.044;2023-05-10T03:44:29;2.47;;;1.23;;
20705;SDS011;10514;49.468;11.044;2023-05-10T03:46:54;2.92;;;1.00;;
20705;SDS011;10514;49.468;11.044;2023-05-10T03:49:21;2.75;;;1.00;;
20705;SDS011;10514;49.468;11.044;2023-05-10T03:51:47;1.95;;;0.90;;
20705;SDS011;10514;49.468;11.044;2023-05-10T03:54:13;1.35;;;0.60;;
20705;SDS011;10514;49.468;11.044;2023-05-10T03:56:39;2.38;;;0.63;;
20705;SDS011;10514;49.468;11.044;2023-05-10T03:59:05;0.80;;;0.70;;
20705;SDS011;10514;49.468;11.044;2023-05-10T04:01:33;0.93;;;0.57;;
20705;SDS011;10514;49.468;11.044;2023-05-10T04:03:59;0.88;;;0.68;;
20705;SDS011;10514;49.468;11.044;2023-05-10T04:06:25;0.68;;;0.60;;
20705;SDS011;10514;49.468;11.044;2023-05-10T04:08:51;1.83;;;0.65;;
20705;SDS011;10514;49.468;11.044;2023-05-10T04:11:16;1.98;;;0.75;;
20705;SDS011;10514;49.468;11.044;2023-05-10T04:13:42;0.85;;;0.60;;
20705;SDS011;10514;49.468;11.044;2023-05-10T04:16:08;1.40;;;1.00;;
20705;SDS011;10514;49.468;11.044;2023-05-10T04:18:33;0.50;;;0.50;;
20705;SDS011;10514;49.468;11.044;2023-05-10T04:21:00;1.08;;;0.50;;
20705;SDS011;10514;49.468;11.044;2023-05-10T04:23:26;1.67;;;0.52;;
20705;SDS011;10514;49.468;11.044;2023-05-10T04:25:52;0.55;;;0.45;;
20705;SDS011;10514;49.468;11.044;2023-05-10T04:28:23;0.30;;;0.30;;
20705;SDS011;10514;49.468;11.044;2023-05-10T04:30:49;1.98;;;0.50;;
20705;SDS011;10514;49.468;11.044;2023-05-10T04:33:15;1.10;;;0.60;;
20705;SDS011;10514;49.468;11.044;2023-05-10T04:35:41;0.80;;;0.50;;
20705;SDS011;10514;49.468;11.044;2023-05-10T04:38:07;0.40;;;0.40;;
20705;SDS011;10514;49.468;11.044;2023-05-10T04:40:33;0.40;;;0.40;;
20705;SDS011;10514;49.468;11.044;2023-05-10T04:42:59;0.30;;;0.30;;
20705;SDS011;10514;49.468;11.044;2023-05-10T04:45:25;0.40;;;0.40;;
20705;SDS011;10514;49.468;11.044;2023-05-10T04:47:51;0.93;;;0.40;;
20705;SDS011;10514;49.468;11.044;2023-05-10T04:50:16;0.50;;;0.50;;
20705;SDS011;10514;49.468;11.044;2023-05-10T04:52:42;0.75;;;0.47;;
20705;SDS011;10514;49.468;11.044;2023-05-10T04:55:08;0.88;;;0.60;;
20705;SDS011;10514;49.468;11.044;2023-05-10T04:57:34;0.50;;;0.50;;
20705;SDS011;10514;49.468;11.044;2023-05-10T05:00:00;1.15;;;0.70;;
20705;SDS011;10514;49.468;11.044;2023-05-10T05:02:26;1.95;;;0.43;;
20705;SDS011;10514;49.468;11.044;2023-05-10T05:04:52;1.02;;;0.50;;
20705;SDS011;10514;49.468;11.044;2023-05-10T05:07:18;0.52;;;0.52;;
20705;SDS011;10514;49.468;11.044;2023-05-10T05:09:44;0.50;;;0.50;;
20705;SDS011;10514;49.468;11.044;2023-05-10T05:12:10;0.60;;;0.60;;
20705;SDS011;10514;49.468;11.044;2023-05-10T05:14:39;1.20;;;0.65;;
20705;SDS011;10514;49.468;11.044;2023-05-10T05:17:04;2.92;;;0.75;;
20705;SDS011;10514;49.468;11.044;2023-05-10T05:19:31;1.92;;;0.60;;
20705;SDS011;10514;49.468;11.044;2023-05-10T05:21:57;1.70;;;1.00;;
20705;SDS011;10514;49.468;11.044;2023-05-10T05:24:22;1.10;;;0.65;;
20705;SDS011;10514;49.468;11.044;2023-05-10T05:26:48;0.68;;;0.50;;
20705;SDS011;10514;49.468;11.044;2023-05-10T05:29:14;0.40;;;0.40;;
20705;SDS011;10514;49.468;11.044;2023-05-10T05:31:40;0.50;;;0.50;;
20705;SDS011;10514;49.468;11.044;2023-05-10T05:34:06;0.80;;;0.50;;
20705;SDS011;10514;49.468;11.044;2023-05-10T05:36:36;1.45;;;0.70;;
20705;SDS011;10514;49.468;11.044;2023-05-10T05:39:03;1.20;;;0.70;;
20705;SDS011;10514;49.468;11.044;2023-05-10T05:41:29;1.05;;;0.70;;
20705;SDS011;10514;49.468;11.044;2023-05-10T05:43:55;2.53;;;0.52;;
20705;SDS011;10514;49.468;11.044;2023-05-10T05:46:21;0.68;;;0.60;;
20705;SDS011;10514;49.468;11.044;2023-05-10T05:48:47;0.90;;;0.70;;
20705;SDS011;10514;49.468;11.044;2023-05-10T05:53:41;1.10;;;0.80;;
20705;SDS011;10514;49.468;11.044;2023-05-10T05:56:07;1.70;;;1.10;;
20705;SDS011;10514;49.468;11.044;2023-05-10T05:58:34;1.30;;;0.60;;
20705;SDS011;10514;49.468;11.044;2023-05-10T06:01:00;3.38;;;0.80;;
20705;SDS011;10514;49.468;11.044;2023-05-10T06:03:26;0.90;;;0.57;;
20705;SDS011;10514;49.468;11.044;2023-05-10T06:05:52;0.80;;;0.70;;
20705;SDS011;10514;49.468;11.044;2023-05-10T06:08:18;1.67;;;0.88;;
20705;SDS011;10514;49.468;11.044;2023-05-10T06:10:45;1.15;;;0.85;;
20705;SDS011;10514;49.468;11.044;2023-05-10T06:13:10;2.97;;;0.70;;
20705;SDS011;10514;49.468;11.044;2023-05-10T06:15:37;0.60;;;0.60;;
20705;SDS011;10514;49.468;11.044;2023-05-10T06:18:03;0.85;;;0.73;;
20705;SDS011;10514;49.468;11.044;2023-05-10T06:20:29;0.98;;;0.65;;
20705;SDS011;10514;49.468;11.044;2023-05-10T06:22:56;0.93;;;0.80;;
20705;SDS011;10514;49.468;11.044;2023-05-10T06:25:23;2.13;;;0.90;;
20705;SDS011;10514;49.468;11.044;2023-05-10T06:27:49;1.40;;;0.80;;
20705;SDS011;10514;49.468;11.044;2023-05-10T06:30:15;1.80;;;0.63;;
20705;SDS011;10514;49.468;11.044;2023-05-10T06:32:41;0.68;;;0.63;;
20705;SDS011;10514;49.468;11.044;2023-05-10T06:35:08;1.90;;;0.70;;
20705;SDS011;10514;49.468;11.044;2023-05-10T06:37:34;0.52;;;0.50;;
20705;SDS011;10514;49.468;11.044;2023-05-10T06:40:00;3.15;;;0.82;;
20705;SDS011;10514;49.468;11.044;2023-05-10T06:42:27;0.80;;;0.70;;
20705;SDS011;10514;49.468;11.044;2023-05-10T06:44:53;1.05;;;0.60;;
20705;SDS011;10514;49.468;11.044;2023-05-10T06:47:19;0.90;;;0.80;;
20705;SDS011;10514;49.468;11.044;2023-05-10T06:49:44;0.60;;;0.60;;
20705;SDS011;10514;49.468;11.044;2023-05-10T06:52:10;1.83;;;0.73;;
20705;SDS011;10514;49.468;11.044;2023-05-10T06:54:36;2.65;;;0.70;;
20705;SDS011;10514;49.468;11.044;2023-05-10T06:57:02;0.80;;;0.60;;
20705;SDS011;10514;49.468;11.044;2023-05-10T06:59:28;0.90;;;0.70;;
20705;SDS011;10514;49.468;11.044;2023-05-10T07:01:54;1.60;;;0.80;;
20705;SDS011;10514;49.468;11.044;2023-05-10T07:04:20;1.10;;;0.65;;
20705;SDS011;10514;49.468;11.044;2023-05-10T07:06:46;0.50;;;0.50;;
20705;SDS011;10514;49.468;11.044;2023-05-10T07:09:12;2.80;;;0.85;;
20705;SDS011;10514;49.468;11.044;2023-05-10T07:11:38;1.15;;;0.63;;
20705;SDS011;10514;49.468;11.044;2023-05-10T07:14:04;2.00;;;0.70;;
20705;SDS011;10514;49.468;11.044;2023-05-10T07:16:30;1.63;;;0.70;;
20705;SDS011;10514;49.468;11.044;2023-05-10T07:18:56;1.60;;;0.55;;
20705;SDS011;10514;49.468;11.044;2023-05-10T07:21:21;0.88;;;0.65;;
20705;SDS011;10514;49.468;11.044;2023-05-10T07:23:49;2.75;;;0.57;;
20705;SDS011;10514;49.468;11.044;2023-05-10T07:26:15;0.50;;;0.50;;
20705;SDS011;10514;49.468;11.044;2023-05-10T07:28:41;1.15;;;0.50;;
20705;SDS011;10514;49.468;11.044;2023-05-10T07:31:07;0.77;;;0.52;;
20705;SDS011;10514;49.468;11.044;2023-05-10T07:33:33;2.58;;;0.52;;
20705;SDS011;10514;49.468;11.044;2023-05-10T07:35:59;0.77;;;0.60;;
20705;SDS011;10514;49.468;11.044;2023-05-10T07:38:25;1.13;;;0.70;;
20705;SDS011;10514;49.468;11.044;2023-05-10T07:40:51;0.80;;;0.60;;
20705;SDS011;10514;49.468;11.044;2023-05-10T07:43:17;2.25;;;0.63;;
20705;SDS011;10514;49.468;11.044;2023-05-10T07:45:43;0.90;;;0.50;;
20705;SDS011;10514;49.468;11.044;2023-05-10T07:48:09;2.30;;;0.90;;
20705;SDS011;10514;49.468;11.044;2023-05-10T07:50:35;2.05;;;0.80;;
20705;SDS011;10514;49.468;11.044;2023-05-10T07:53:01;1.30;;;0.75;;
20705;SDS011;10514;49.468;11.044;2023-05-10T07:55:27;0.82;;;0.70;;
20705;SDS011;10514;49.468;11.044;2023-05-10T07:57:52;2.58;;;1.17;;
20705;SDS011;10514;49.468;11.044;2023-05-10T08:00:19;2.05;;;0.90;;
20705;SDS011;10514;49.468;11.044;2023-05-10T08:02:45;1.23;;;0.85;;
20705;SDS011;10514;49.468;11.044;2023-05-10T08:05:11;2.25;;;0.80;;
20705;SDS011;10514;49.468;11.044;2023-05-10T08:07:38;1.23;;;0.70;;
20705;SDS011;10514;49.468;11.044;2023-05-10T08:10:04;2.92;;;0.82;;
20705;SDS011;10514;49.468;11.044;2023-05-10T08:12:30;0.93;;;0.63;;
20705;SDS011;10514;49.468;11.044;2023-05-10T08:14:56;1.20;;;0.75;;
20705;SDS011;10514;49.468;11.044;2023-05-10T08:17:22;3.55;;;0.70;;
20705;SDS011;10514;49.468;11.044;2023-05-10T08:19:48;2.08;;;1.00;;
20705;SDS011;10514;49.468;11.044;2023-05-10T08:22:14;0.90;;;0.80;;
20705;SDS011;10514;49.468;11.044;2023-05-10T08:24:40;2.38;;;1.13;;
20705;SDS011;10514;49.468;11.044;2023-05-10T08:27:07;0.80;;;0.80;;
20705;SDS011;10514;49.468;11.044;2023-05-10T08:29:33;1.35;;;0.90;;
20705;SDS011;10514;49.468;11.044;2023-05-10T08:31:59;1.58;;;0.90;;
20705;SDS011;10514;49.468;11.044;2023-05-10T08:34:26;0.80;;;0.80;;
20705;SDS011;10514;49.468;11.044;2023-05-10T08:36:52;3.38;;;1.02;;
20705;SDS011;10514;49.468;11.044;2023-05-10T08:39:18;1.40;;;0.90;;
20705;SDS011;10514;49.468;11.044;2023-05-10T08:41:45;1.00;;;0.85;;
20705;SDS011;10514;49.468;11.044;2023-05-10T08:44:12;2.03;;;0.90;;
20705;SDS011;10514;49.468;11.044;2023-05-10T08:46:38;1.67;;;1.00;;
20705;SDS011;10514;49.468;11.044;2023-05-10T08:49:08;3.22;;;0.80;;
20705;SDS011;10514;49.468;11.044;2023-05-10T08:51:37;14.73;;;5.10;;
20705;SDS011;10514;49.468;11.044;2023-05-10T08:54:06;6.43;;;2.42;;
20705;SDS011;10514;49.468;11.044;2023-05-10T08:56:31;5.50;;;1.02;;
20705;SDS011;10514;49.468;11.044;2023-05-10T08:58:57;1.10;;;0.80;;
20705;SDS011;10514;49.468;11.044;2023-05-10T09:01:24;1.92;;;0.82;;
20705;SDS011;10514;49.468;11.044;2023-05-10T09:03:51;2.40;;;0.95;;
20705;SDS011;10514;49.468;11.044;2023-05-10T09:06:17;0.93;;;0.82;;
20705;SDS011;10514;49.468;11.044;2023-05-10T09:08:43;1.70;;;1.00;;
20705;SDS011;10514;49.468;11.044;2023-05-10T09:11:09;3.63;;;0.80;;
20705;SDS011;10514;49.468;11.044;2023-05-10T09:13:36;3.58;;;1.00;;
20705;SDS011;10514;49.468;11.044;2023-05-10T09:16:03;2.97;;;0.90;;
20705;SDS011;10514;49.468;11.044;2023-05-10T09:18:32;2.55;;;1.20;;
20705;SDS011;10514;49.468;11.044;2023-05-10T09:20:58;3.75;;;1.27;;
20705;SDS011;10514;49.468;11.044;2023-05-10T09:23:24;2.30;;;1.45;;
20705;SDS011;10514;49.468;11.044;2023-05-10T09:26:05;2.28;;;1.33;;
20705;SDS011;10514;49.468;11.044;2023-05-10T09:28:34;3.35;;;1.42;;
20705;SDS011;10514;49.468;11.044;2023-05-10T09:31:15;1.50;;;1.40;;
20705;SDS011;10514;49.468;11.044;2023-05-10T09:33:44;3.38;;;1.30;;
20705;SDS011;10514;49.468;11.044;2023-05-10T09:36:12;3.65;;;1.10;;
20705;SDS011;10514;49.468;11.044;2023-05-10T09:38:53;3.03;;;1.40;;
20705;SDS011;10514;49.468;11.044;2023-05-10T09:41:19;1.70;;;1.08;;
20705;SDS011;10514;49.468;11.044;2023-05-10T09:43:46;1.80;;;1.30;;
20705;SDS011;10514;49.468;11.044;2023-05-10T09:46:12;2.90;;;1.35;;
20705;SDS011;10514;49.468;11.044;2023-05-10T09:48:42;3.53;;;1.20;;
20705;SDS011;10514;49.468;11.044;2023-05-10T09:51:08;3.28;;;1.15;;
20705;SDS011;10514;49.468;11.044;2023-05-10T09:53:35;1.73;;;1.20;;
20705;SDS011;10514;49.468;11.044;2023-05-10T09:56:00;6.15;;;1.40;;
20705;SDS011;10514;49.468;11.044;2023-05-10T09:58:26;2.00;;;0.90;;
20705;SDS011;10514;49.468;11.044;2023-05-10T10:00:52;2.33;;;1.10;;
20705;SDS011;10514;49.468;11.044;2023-05-10T10:03:19;1.60;;;0.88;;
20705;SDS011;10514;49.468;11.044;2023-05-10T10:05:46;4.07;;;1.17;;
20705;SDS011;10514;49.468;11.044;2023-05-10T10:08:13;2.13;;;1.10;;
20705;SDS011;10514;49.468;11.044;2023-05-10T10:10:39;1.00;;;0.80;;
20705;SDS011;10514;49.468;11.044;2023-05-10T10:13:06;1.10;;;0.77;;
20705;SDS011;10514;49.468;11.044;2023-05-10T10:15:32;1.80;;;0.90;;
20705;SDS011;10514;49.468;11.044;2023-05-10T10:17:59;4.25;;;0.88;;
20705;SDS011;10514;49.468;11.044;2023-05-10T10:20:25;1.33;;;0.80;;
20705;SDS011;10514;49.468;11.044;2023-05-10T10:22:52;0.98;;;0.80;;
20705;SDS011;10514;49.468;11.044;2023-05-10T10:25:18;1.98;;;0.80;;
20705;SDS011;10514;49.468;11.044;2023-05-10T10:32:59;1.85;;;0.75;;
20705;SDS011;10514;49.468;11.044;2023-05-10T10:35:27;2.88;;;0.60;;
20705;SDS011;10514;49.468;11.044;2023-05-10T10:37:56;2.17;;;0.60;;
20705;SDS011;10514;49.468;11.044;2023-05-10T10:42:55;8.93;;;0.82;;
20705;SDS011;10514;49.468;11.044;2023-05-10T10:45:21;1.23;;;0.75;;
20705;SDS011;10514;49.468;11.044;2023-05-10T10:47:48;1.27;;;0.70;;
20705;SDS011;10514;49.468;11.044;2023-05-10T10:50:18;1.85;;;0.80;;
20705;SDS011;10514;49.468;11.044;2023-05-10T10:52:46;0.75;;;0.60;;
20705;SDS011;10514;49.468;11.044;2023-05-10T10:55:18;0.95;;;0.68;;
20705;SDS011;10514;49.468;11.044;2023-05-10T11:02:46;3.10;;;0.70;;
20705;SDS011;10514;49.468;11.044;2023-05-10T11:08:17;1.33;;;0.77;;
20705;SDS011;10514;49.468;11.044;2023-05-10T11:10:53;1.55;;;0.90;;
20705;SDS011;10514;49.468;11.044;2023-05-10T11:15:55;5.63;;;1.00;;
20705;SDS011;10514;49.468;11.044;2023-05-10T11:18:28;2.28;;;1.17;;
20705;SDS011;10514;49.468;11.044;2023-05-10T11:20:59;5.25;;;1.00;;
20705;SDS011;10514;49.468;11.044;2023-05-10T11:23:31;4.43;;;0.82;;
20705;SDS011;10514;49.468;11.044;2023-05-10T11:25:58;0.80;;;0.80;;
20705;SDS011;10514;49.468;11.044;2023-05-10T11:28:24;3.92;;;1.10;;
20705;SDS011;10514;49.468;11.044;2023-05-10T11:30:51;1.23;;;0.80;;
20705;SDS011;10514;49.468;11.044;2023-05-10T11:33:18;1.52;;;0.90;;
20705;SDS011;10514;49.468;11.044;2023-05-10T11:35:44;2.22;;;1.00;;
20705;SDS011;10514;49.468;11.044;2023-05-10T11:38:11;1.40;;;0.70;;
20705;SDS011;10514;49.468;11.044;2023-05-10T11:40:37;0.90;;;0.70;;
20705;SDS011;10514;49.468;11.044;2023-05-10T11:43:04;1.58;;;0.90;;
20705;SDS011;10514;49.468;11.044;2023-05-10T11:45:34;2.17;;;1.42;;
20705;SDS011;10514;49.468;11.044;2023-05-10T11:48:00;2.35;;;0.70;;
20705;SDS011;10514;49.468;11.044;2023-05-10T11:50:26;3.10;;;1.10;;
20705;SDS011;10514;49.468;11.044;2023-05-10T11:52:53;1.08;;;0.82;;
20705;SDS011;10514;49.468;11.044;2023-05-10T11:55:19;1.85;;;0.85;;
20705;SDS011;10514;49.468;11.044;2023-05-10T11:57:45;4.22;;;1.10;;
20705;SDS011;10514;49.468;11.044;2023-05-10T12:00:12;2.17;;;0.90;;
20705;SDS011;10514;49.468;11.044;2023-05-10T12:02:38;2.40;;;0.90;;
20705;SDS011;10514;49.468;11.044;2023-05-10T12:05:04;1.25;;;0.90;;
20705;SDS011;10514;49.468;11.044;2023-05-10T12:07:30;7.43;;;0.90;;
20705;SDS011;10514;49.468;11.044;2023-05-10T12:10:09;1.02;;;0.80;;
20705;SDS011;10514;49.468;11.044;2023-05-10T12:12:39;1.45;;;0.90;;
20705;SDS011;10514;49.468;11.044;2023-05-10T12:15:10;1.23;;;0.88;;
20705;SDS011;10514;49.468;11.044;2023-05-10T12:17:38;1.67;;;0.63;;
20705;SDS011;10514;49.468;11.044;2023-05-10T12:20:14;0.70;;;0.70;;
20705;SDS011;10514;49.468;11.044;2023-05-10T12:22:43;3.08;;;1.88;;
20705;SDS011;10514;49.468;11.044;2023-05-10T12:25:09;1.08;;;0.80;;
20705;SDS011;10514;49.468;11.044;2023-05-10T12:27:35;1.60;;;0.90;;
20705;SDS011;10514;49.468;11.044;2023-05-10T12:30:01;4.82;;;0.90;;
20705;SDS011;10514;49.468;11.044;2023-05-10T12:32:40;1.17;;;0.82;;
20705;SDS011;10514;49.468;11.044;2023-05-10T12:35:06;1.45;;;0.90;;
20705;SDS011;10514;49.468;11.044;2023-05-10T12:37:33;1.40;;;0.80;;
20705;SDS011;10514;49.468;11.044;2023-05-10T12:40:04;1.90;;;0.80;;
20705;SDS011;10514;49.468;11.044;2023-05-10T12:42:30;1.10;;;1.00;;
20705;SDS011;10514;49.468;11.044;2023-05-10T12:44:57;0.90;;;0.75;;
20705;SDS011;10514;49.468;11.044;2023-05-10T12:47:22;0.73;;;0.60;;
20705;SDS011;10514;49.468;11.044;2023-05-10T12:49:48;0.80;;;0.60;;
20705;SDS011;10514;49.468;11.044;2023-05-10T12:52:14;0.80;;;0.80;;
20705;SDS011;10514;49.468;11.044;2023-05-10T12:54:40;3.63;;;1.17;;
20705;SDS011;10514;49.468;11.044;2023-05-10T12:57:05;1.05;;;0.70;;
20705;SDS011;10514;49.468;11.044;2023-05-10T12:59:31;3.55;;;0.82;;
20705;SDS011;10514;49.468;11.044;2023-05-10T13:01:57;0.90;;;0.73;;
20705;SDS011;10514;49.468;11.044;2023-05-10T13:04:23;0.95;;;0.65;;
20705;SDS011;10514;49.468;11.044;2023-05-10T13:06:49;0.88;;;0.70;;
20705;SDS011;10514;49.468;11.044;2023-05-10T13:09:15;1.58;;;0.82;;
20705;SDS011;10514;49.468;11.044;2023-05-10T13:11:41;1.90;;;0.75;;
20705;SDS011;10514;49.468;11.044;2023-05-10T13:14:07;2.78;;;0.88;;
20705;SDS011;10514;49.468;11.044;2023-05-10T13:16:33;1.13;;;0.90;;
20705;SDS011;10514;49.468;11.044;2023-05-10T13:18:59;1.70;;;0.88;;
20705;SDS011;10514;49.468;11.044;2023-05-10T13:21:25;3.05;;;1.00;;
20705;SDS011;10514;49.468;11.044;2023-05-10T13:23:51;2.70;;;0.95;;
20705;SDS011;10514;49.468;11.044;2023-05-10T13:26:17;9.23;;;1.77;;
20705;SDS011;10514;49.468;11.044;2023-05-10T13:28:43;2.92;;;1.17;;
20705;SDS011;10514;49.468;11.044;2023-05-10T13:31:10;7.25;;;2.13;;
20705;SDS011;10514;49.468;11.044;2023-05-10T13:33:36;3.83;;;1.35;;
20705;SDS011;10514;49.468;11.044;2023-05-10T13:36:02;1.35;;;0.90;;
20705;SDS011;10514;49.468;11.044;2023-05-10T13:38:28;0.88;;;0.63;;
20705;SDS011;10514;49.468;11.044;2023-05-10T13:40:54;1.20;;;0.80;;
20705;SDS011;10514;49.468;11.044;2023-05-10T13:43:20;0.88;;;0.75;;
20705;SDS011;10514;49.468;11.044;2023-05-10T13:45:46;3.90;;;0.90;;
20705;SDS011;10514;49.468;11.044;2023-05-10T13:48:12;1.50;;;0.88;;
20705;SDS011;10514;49.468;11.044;2023-05-10T13:50:38;7.30;;;2.17;;
20705;SDS011;10514;49.468;11.044;2023-05-10T13:53:05;5.13;;;1.42;;
20705;SDS011;10514;49.468;11.044;2023-05-10T13:55:30;2.33;;;1.30;;
20705;SDS011;10514;49.468;11.044;2023-05-10T13:57:56;3.10;;;1.40;;
20705;SDS011;10514;49.468;11.044;2023-05-10T14:00:23;2.83;;;1.30;;
20705;SDS011;10514;49.468;11.044;2023-05-10T14:02:48;3.35;;;1.48;;
20705;SDS011;10514;49.468;11.044;2023-05-10T14:05:14;2.28;;;1.15;;
20705;SDS011;10514;49.468;11.044;2023-05-10T14:07:40;4.28;;;1.30;;
20705;SDS011;10514;49.468;11.044;2023-05-10T14:10:06;2.00;;;1.10;;
20705;SDS011;10514;49.468;11.044;2023-05-10T14:12:32;1.77;;;1.25;;
20705;SDS011;10514;49.468;11.044;2023-05-10T14:14:58;1.23;;;0.80;;
20705;SDS011;10514;49.468;11.044;2023-05-10T14:17:24;1.10;;;0.85;;
20705;SDS011;10514;49.468;11.044;2023-05-10T14:19:50;4.35;;;1.00;;
20705;SDS011;10514;49.468;11.044;2023-05-10T14:22:16;3.05;;;1.10;;
20705;SDS011;10514;49.468;11.044;2023-05-10T14:24:43;3.30;;;0.98;;
20705;SDS011;10514;49.468;11.044;2023-05-10T14:27:11;2.03;;;1.13;;
20705;SDS011;10514;49.468;11.044;2023-05-10T14:29:37;2.92;;;1.38;;
20705;SDS011;10514;49.468;11.044;2023-05-10T14:32:03;2.90;;;0.75;;
20705;SDS011;10514;49.468;11.044;2023-05-10T14:34:29;3.38;;;0.88;;
20705;SDS011;10514;49.468;11.044;2023-05-10T14:36:55;2.75;;;0.80;;
20705;SDS011;10514;49.468;11.044;2023-05-10T14:39:21;2.33;;;0.90;;
20705;SDS011;10514;49.468;11.044;2023-05-10T14:41:48;2.42;;;0.98;;
20705;SDS011;10514;49.468;11.044;2023-05-10T14:44:14;8.23;;;1.23;;
20705;SDS011;10514;49.468;11.044;2023-05-10T14:46:40;2.75;;;1.08;;
20705;SDS011;10514;49.468;11.044;2023-05-10T14:49:06;0.80;;;0.80;;
20705;SDS011;10514;49.468;11.044;2023-05-10T14:51:32;3.10;;;0.90;;
20705;SDS011;10514;49.468;11.044;2023-05-10T14:53:58;1.90;;;0.90;;
20705;SDS011;10514;49.468;11.044;2023-05-10T14:56:24;2.20;;;0.90;;
20705;SDS011;10514;49.468;11.044;2023-05-10T14:58:51;1.60;;;0.90;;
20705;SDS011;10514;49.468;11.044;2023-05-10T15:01:17;3.80;;;1.23;;
20705;SDS011;10514;49.468;11.044;2023-05-10T15:03:43;3.45;;;1.00;;
20705;SDS011;10514;49.468;11.044;2023-05-10T15:06:09;2.90;;;1.23;;